This is the latest recevied weather packets stored in our database for station/object HP1CDW-11. If no packets are shown the sender has not sent any weather packets the latest 10 day(s).
| Time | Temp. | Humidity | Pressure | Rain* | Wind** | Luminosity | Snow |
|---|---|---|---|---|---|---|---|
| 1778185167 | 32.22° C | 46% | 1007.2 hPa | - | - | - | - |
| 1778184567 | 32.22° C | 45% | 1007.3 hPa | - | - | - | - |
| 1778183966 | 32.22° C | 45% | 1007.2 hPa | - | - | - | - |
| 1778183366 | 31.67° C | 42% | 1007.5 hPa | - | - | - | - |
| 1778182766 | 31.67° C | 42% | 1007.6 hPa | - | - | - | - |
| 1778182165 | 31.67° C | 41% | 1007.8 hPa | - | - | - | - |
| 1778181565 | 31.11° C | 40% | 1008 hPa | - | - | - | - |
| 1778180965 | 31.11° C | 38% | 1008.2 hPa | - | - | - | - |
| 1778180364 | 31.11° C | 35% | 1008.3 hPa | - | - | - | - |
| 1778179764 | 31.11° C | 33% | 1008.5 hPa | - | - | - | - |
| 1778179164 | 30.56° C | 31% | 1008.7 hPa | - | - | - | - |
| 1778178564 | 30.56° C | 31% | 1008.8 hPa | - | - | - | - |
| 1778177963 | 30.56° C | 32% | 1009 hPa | - | - | - | - |
| 1778177363 | 30.56° C | 32% | 1009.2 hPa | - | - | - | - |
| 1778176763 | 30.56° C | 32% | 1009.4 hPa | - | - | - | - |
| 1778176162 | 30.56° C | 32% | 1009.6 hPa | - | - | - | - |
| 1778175562 | 30.56° C | 32% | 1009.7 hPa | - | - | - | - |
| 1778174961 | 30.56° C | 32% | 1009.9 hPa | - | - | - | - |
| 1778174361 | 30.56° C | 32% | 1010 hPa | - | - | - | - |
| 1778173761 | 30.56° C | 32% | 1010.2 hPa | - | - | - | - |
| 1778173161 | 30.56° C | 32% | 1010.3 hPa | - | - | - | - |
| 1778172560 | 30.56° C | 32% | 1010.4 hPa | - | - | - | - |
| 1778171960 | 30.56° C | 32% | 1010.5 hPa | - | - | - | - |
| 1778171360 | 30° C | 33% | 1010.7 hPa | - | - | - | - |
| 1778170759 | 30.56° C | 33% | 1010.7 hPa | - | - | - | - |
* Rain since midnight (hover to see other rain measurements)
** Current wind speed in m/s (hover to see current wind gust speed)